sensor_id;sensor_type;location;lat;lon;timestamp;P1;P2;P0
72023;PMS5003;59889;50.700;5.440;2023-12-20T00:01:24;3;3;
72023;PMS5003;59889;50.700;5.440;2023-12-20T00:03:50;2;2;
72023;PMS5003;59889;50.700;5.440;2023-12-20T00:06:15;4;4;
72023;PMS5003;59889;50.700;5.440;2023-12-20T00:08:40;4;3;
72023;PMS5003;59889;50.700;5.440;2023-12-20T00:11:05;4;4;
72023;PMS5003;59889;50.700;5.440;2023-12-20T00:13:30;3;3;
72023;PMS5003;59889;50.700;5.440;2023-12-20T00:15:55;5;5;
72023;PMS5003;59889;50.700;5.440;2023-12-20T00:18:20;3;3;
72023;PMS5003;59889;50.700;5.440;2023-12-20T00:20:45;2;2;
72023;PMS5003;59889;50.700;5.440;2023-12-20T00:23:10;4;4;
72023;PMS5003;59889;50.700;5.440;2023-12-20T00:25:35;3;3;
72023;PMS5003;59889;50.700;5.440;2023-12-20T00:28:00;3;3;
72023;PMS5003;59889;50.700;5.440;2023-12-20T00:30:26;3;3;
72023;PMS5003;59889;50.700;5.440;2023-12-20T00:32:51;3;3;
72023;PMS5003;59889;50.700;5.440;2023-12-20T00:35:16;5;4;
72023;PMS5003;59889;50.700;5.440;2023-12-20T00:37:41;3;3;
72023;PMS5003;59889;50.700;5.440;2023-12-20T00:40:06;3;3;
72023;PMS5003;59889;50.700;5.440;2023-12-20T00:42:31;3;3;
72023;PMS5003;59889;50.700;5.440;2023-12-20T00:44:56;4;4;
72023;PMS5003;59889;50.700;5.440;2023-12-20T00:47:21;2;2;
72023;PMS5003;59889;50.700;5.440;2023-12-20T00:49:46;4;4;
72023;PMS5003;59889;50.700;5.440;2023-12-20T00:52:11;3;2;
72023;PMS5003;59889;50.700;5.440;2023-12-20T00:54:36;4;3;
72023;PMS5003;59889;50.700;5.440;2023-12-20T00:57:02;3;3;
72023;PMS5003;59889;50.700;5.440;2023-12-20T00:59:26;3;3;
72023;PMS5003;59889;50.700;5.440;2023-12-20T01:01:52;5;4;
72023;PMS5003;59889;50.700;5.440;2023-12-20T01:04:17;4;4;
72023;PMS5003;59889;50.700;5.440;2023-12-20T01:06:42;3;2;
72023;PMS5003;59889;50.700;5.440;2023-12-20T01:09:07;4;3;
72023;PMS5003;59889;50.700;5.440;2023-12-20T01:11:33;4;4;
72023;PMS5003;59889;50.700;5.440;2023-12-20T01:13:57;2;2;
72023;PMS5003;59889;50.700;5.440;2023-12-20T01:16:22;2;2;
72023;PMS5003;59889;50.700;5.440;2023-12-20T01:18:47;3;3;
72023;PMS5003;59889;50.700;5.440;2023-12-20T01:21:12;5;4;
72023;PMS5003;59889;50.700;5.440;2023-12-20T01:23:38;3;3;
72023;PMS5003;59889;50.700;5.440;2023-12-20T01:26:03;3;3;
72023;PMS5003;59889;50.700;5.440;2023-12-20T01:28:28;4;4;
72023;PMS5003;59889;50.700;5.440;2023-12-20T01:30:53;5;4;
72023;PMS5003;59889;50.700;5.440;2023-12-20T01:33:18;4;4;
72023;PMS5003;59889;50.700;5.440;2023-12-20T01:35:44;2;2;
72023;PMS5003;59889;50.700;5.440;2023-12-20T01:38:08;2;2;
72023;PMS5003;59889;50.700;5.440;2023-12-20T01:40:34;3;3;
72023;PMS5003;59889;50.700;5.440;2023-12-20T01:42:59;3;3;
72023;PMS5003;59889;50.700;5.440;2023-12-20T01:45:24;4;3;
72023;PMS5003;59889;50.700;5.440;2023-12-20T01:47:50;2;2;
72023;PMS5003;59889;50.700;5.440;2023-12-20T01:50:14;3;3;
72023;PMS5003;59889;50.700;5.440;2023-12-20T01:52:39;3;3;
72023;PMS5003;59889;50.700;5.440;2023-12-20T01:55:04;3;3;
72023;PMS5003;59889;50.700;5.440;2023-12-20T01:57:29;3;3;
72023;PMS5003;59889;50.700;5.440;2023-12-20T01:59:54;3;2;
72023;PMS5003;59889;50.700;5.440;2023-12-20T02:02:19;3;2;
72023;PMS5003;59889;50.700;5.440;2023-12-20T02:04:44;3;2;
72023;PMS5003;59889;50.700;5.440;2023-12-20T02:07:10;4;3;
72023;PMS5003;59889;50.700;5.440;2023-12-20T02:09:35;4;3;
72023;PMS5003;59889;50.700;5.440;2023-12-20T02:12:00;2;2;
72023;PMS5003;59889;50.700;5.440;2023-12-20T02:14:25;3;3;
72023;PMS5003;59889;50.700;5.440;2023-12-20T02:16:50;3;3;
72023;PMS5003;59889;50.700;5.440;2023-12-20T02:19:15;3;3;
72023;PMS5003;59889;50.700;5.440;2023-12-20T02:21:40;2;2;
72023;PMS5003;59889;50.700;5.440;2023-12-20T02:24:05;3;3;
72023;PMS5003;59889;50.700;5.440;2023-12-20T02:26:30;3;3;
72023;PMS5003;59889;50.700;5.440;2023-12-20T02:28:56;3;3;
72023;PMS5003;59889;50.700;5.440;2023-12-20T02:31:20;3;3;
72023;PMS5003;59889;50.700;5.440;2023-12-20T02:33:45;2;2;
72023;PMS5003;59889;50.700;5.440;2023-12-20T02:36:11;2;2;
72023;PMS5003;59889;50.700;5.440;2023-12-20T02:38:36;3;1;
72023;PMS5003;59889;50.700;5.440;2023-12-20T02:41:01;2;2;
72023;PMS5003;59889;50.700;5.440;2023-12-20T02:43:26;2;2;
72023;PMS5003;59889;50.700;5.440;2023-12-20T02:45:51;3;3;
72023;PMS5003;59889;50.700;5.440;2023-12-20T02:48:16;4;3;
72023;PMS5003;59889;50.700;5.440;2023-12-20T02:50:41;3;3;
72023;PMS5003;59889;50.700;5.440;2023-12-20T02:53:06;5;3;
72023;PMS5003;59889;50.700;5.440;2023-12-20T02:55:31;3;3;
72023;PMS5003;59889;50.700;5.440;2023-12-20T02:57:57;3;3;
72023;PMS5003;59889;50.700;5.440;2023-12-20T03:00:21;2;2;
72023;PMS5003;59889;50.700;5.440;2023-12-20T03:02:47;3;3;
72023;PMS5003;59889;50.700;5.440;2023-12-20T03:05:12;3;2;
72023;PMS5003;59889;50.700;5.440;2023-12-20T03:07:37;2;2;
72023;PMS5003;59889;50.700;5.440;2023-12-20T03:10:03;3;3;
72023;PMS5003;59889;50.700;5.440;2023-12-20T03:12:27;1;1;
72023;PMS5003;59889;50.700;5.440;2023-12-20T03:14:52;2;2;
72023;PMS5003;59889;50.700;5.440;2023-12-20T03:17:17;2;2;
72023;PMS5003;59889;50.700;5.440;2023-12-20T03:19:42;3;2;
72023;PMS5003;59889;50.700;5.440;2023-12-20T03:22:07;3;3;
72023;PMS5003;59889;50.700;5.440;2023-12-20T03:24:32;2;2;
72023;PMS5003;59889;50.700;5.440;2023-12-20T03:26:57;3;3;
72023;PMS5003;59889;50.700;5.440;2023-12-20T03:29:23;3;3;
72023;PMS5003;59889;50.700;5.440;2023-12-20T03:31:48;3;3;
72023;PMS5003;59889;50.700;5.440;2023-12-20T03:34:14;3;3;
72023;PMS5003;59889;50.700;5.440;2023-12-20T03:36:38;3;3;
72023;PMS5003;59889;50.700;5.440;2023-12-20T03:39:03;3;2;
72023;PMS5003;59889;50.700;5.440;2023-12-20T03:41:28;2;2;
72023;PMS5003;59889;50.700;5.440;2023-12-20T03:43:53;2;2;
72023;PMS5003;59889;50.700;5.440;2023-12-20T03:46:18;1;1;
72023;PMS5003;59889;50.700;5.440;2023-12-20T03:48:43;2;2;
72023;PMS5003;59889;50.700;5.440;2023-12-20T03:51:08;3;3;
72023;PMS5003;59889;50.700;5.440;2023-12-20T03:53:33;2;2;
72023;PMS5003;59889;50.700;5.440;2023-12-20T03:55:58;2;2;
72023;PMS5003;59889;50.700;5.440;2023-12-20T03:58:24;2;2;
72023;PMS5003;59889;50.700;5.440;2023-12-20T04:00:49;2;2;
72023;PMS5003;59889;50.700;5.440;2023-12-20T04:03:14;2;2;
72023;PMS5003;59889;50.700;5.440;2023-12-20T04:05:39;3;2;
72023;PMS5003;59889;50.700;5.440;2023-12-20T04:08:04;3;3;
72023;PMS5003;59889;50.700;5.440;2023-12-20T04:10:29;3;3;
72023;PMS5003;59889;50.700;5.440;2023-12-20T04:12:54;1;1;
72023;PMS5003;59889;50.700;5.440;2023-12-20T04:15:20;2;2;
72023;PMS5003;59889;50.700;5.440;2023-12-20T04:17:44;2;2;
72023;PMS5003;59889;50.700;5.440;2023-12-20T04:20:10;2;2;
72023;PMS5003;59889;50.700;5.440;2023-12-20T04:22:34;2;2;
72023;PMS5003;59889;50.700;5.440;2023-12-20T04:25:00;3;3;
72023;PMS5003;59889;50.700;5.440;2023-12-20T04:27:25;1;1;
72023;PMS5003;59889;50.700;5.440;2023-12-20T04:29:50;3;2;
72023;PMS5003;59889;50.700;5.440;2023-12-20T04:32:16;1;1;
72023;PMS5003;59889;50.700;5.440;2023-12-20T04:34:40;2;2;
72023;PMS5003;59889;50.700;5.440;2023-12-20T04:37:05;1;1;
72023;PMS5003;59889;50.700;5.440;2023-12-20T04:39:30;2;2;
72023;PMS5003;59889;50.700;5.440;2023-12-20T04:41:55;3;3;
72023;PMS5003;59889;50.700;5.440;2023-12-20T04:44:20;2;2;
72023;PMS5003;59889;50.700;5.440;2023-12-20T04:46:45;2;2;
72023;PMS5003;59889;50.700;5.440;2023-12-20T04:49:10;2;2;
72023;PMS5003;59889;50.700;5.440;2023-12-20T04:51:36;1;1;
72023;PMS5003;59889;50.700;5.440;2023-12-20T04:54:01;2;2;
72023;PMS5003;59889;50.700;5.440;2023-12-20T04:56:26;1;1;
72023;PMS5003;59889;50.700;5.440;2023-12-20T04:58:51;2;2;
72023;PMS5003;59889;50.700;5.440;2023-12-20T05:01:17;2;2;
72023;PMS5003;59889;50.700;5.440;2023-12-20T05:03:41;2;2;
72023;PMS5003;59889;50.700;5.440;2023-12-20T05:06:06;1;1;
72023;PMS5003;59889;50.700;5.440;2023-12-20T05:08:32;3;3;
72023;PMS5003;59889;50.700;5.440;2023-12-20T05:10:57;1;1;
72023;PMS5003;59889;50.700;5.440;2023-12-20T05:13:22;2;2;
72023;PMS5003;59889;50.700;5.440;2023-12-20T05:15:47;3;3;
72023;PMS5003;59889;50.700;5.440;2023-12-20T05:18:12;2;2;
72023;PMS5003;59889;50.700;5.440;2023-12-20T05:20:37;3;2;
72023;PMS5003;59889;50.700;5.440;2023-12-20T05:23:02;2;2;
72023;PMS5003;59889;50.700;5.440;2023-12-20T05:25:27;2;2;
72023;PMS5003;59889;50.700;5.440;2023-12-20T05:27:52;2;2;
72023;PMS5003;59889;50.700;5.440;2023-12-20T05:30:17;1;1;
72023;PMS5003;59889;50.700;5.440;2023-12-20T05:32:42;2;2;
72023;PMS5003;59889;50.700;5.440;2023-12-20T05:35:07;4;4;
72023;PMS5003;59889;50.700;5.440;2023-12-20T05:37:32;3;3;
72023;PMS5003;59889;50.700;5.440;2023-12-20T05:39:58;4;4;
72023;PMS5003;59889;50.700;5.440;2023-12-20T05:42:23;4;4;
72023;PMS5003;59889;50.700;5.440;2023-12-20T05:44:48;6;5;
72023;PMS5003;59889;50.700;5.440;2023-12-20T05:47:13;6;4;
72023;PMS5003;59889;50.700;5.440;2023-12-20T05:49:38;6;4;
72023;PMS5003;59889;50.700;5.440;2023-12-20T05:52:04;4;4;
72023;PMS5003;59889;50.700;5.440;2023-12-20T05:54:28;3;3;
72023;PMS5003;59889;50.700;5.440;2023-12-20T05:56:53;4;4;
72023;PMS5003;59889;50.700;5.440;2023-12-20T05:59:18;4;4;
72023;PMS5003;59889;50.700;5.440;2023-12-20T06:01:43;4;4;
72023;PMS5003;59889;50.700;5.440;2023-12-20T06:04:09;6;5;
72023;PMS5003;59889;50.700;5.440;2023-12-20T06:06:34;4;4;
72023;PMS5003;59889;50.700;5.440;2023-12-20T06:08:59;5;4;
72023;PMS5003;59889;50.700;5.440;2023-12-20T06:11:32;5;4;
72023;PMS5003;59889;50.700;5.440;2023-12-20T06:13:50;5;4;
72023;PMS5003;59889;50.700;5.440;2023-12-20T06:16:15;4;3;
72023;PMS5003;59889;50.700;5.440;2023-12-20T06:18:40;5;5;
72023;PMS5003;59889;50.700;5.440;2023-12-20T06:21:05;4;4;
72023;PMS5003;59889;50.700;5.440;2023-12-20T06:23:30;3;3;
72023;PMS5003;59889;50.700;5.440;2023-12-20T06:25:55;7;5;
72023;PMS5003;59889;50.700;5.440;2023-12-20T06:28:20;5;4;
72023;PMS5003;59889;50.700;5.440;2023-12-20T06:30:45;5;3;
72023;PMS5003;59889;50.700;5.440;2023-12-20T06:33:11;6;5;
72023;PMS5003;59889;50.700;5.440;2023-12-20T06:35:35;4;4;
72023;PMS5003;59889;50.700;5.440;2023-12-20T06:38:00;7;5;
72023;PMS5003;59889;50.700;5.440;2023-12-20T06:40:25;4;4;
72023;PMS5003;59889;50.700;5.440;2023-12-20T06:42:51;7;4;
72023;PMS5003;59889;50.700;5.440;2023-12-20T06:45:16;4;4;
72023;PMS5003;59889;50.700;5.440;2023-12-20T06:47:41;6;6;
72023;PMS5003;59889;50.700;5.440;2023-12-20T06:50:07;5;5;
72023;PMS5003;59889;50.700;5.440;2023-12-20T06:52:32;6;6;
72023;PMS5003;59889;50.700;5.440;2023-12-20T06:54:57;4;4;
72023;PMS5003;59889;50.700;5.440;2023-12-20T06:57:22;6;5;
72023;PMS5003;59889;50.700;5.440;2023-12-20T06:59:47;8;6;
72023;PMS5003;59889;50.700;5.440;2023-12-20T07:02:13;7;5;
72023;PMS5003;59889;50.700;5.440;2023-12-20T07:04:38;6;6;
72023;PMS5003;59889;50.700;5.440;2023-12-20T07:07:03;9;5;
72023;PMS5003;59889;50.700;5.440;2023-12-20T07:09:28;5;5;
72023;PMS5003;59889;50.700;5.440;2023-12-20T07:11:54;6;5;
72023;PMS5003;59889;50.700;5.440;2023-12-20T07:14:19;6;6;
72023;PMS5003;59889;50.700;5.440;2023-12-20T07:16:44;5;5;
72023;PMS5003;59889;50.700;5.440;2023-12-20T07:19:09;6;5;
72023;PMS5003;59889;50.700;5.440;2023-12-20T07:21:35;4;4;
72023;PMS5003;59889;50.700;5.440;2023-12-20T07:24:00;4;4;
72023;PMS5003;59889;50.700;5.440;2023-12-20T07:26:25;5;4;
72023;PMS5003;59889;50.700;5.440;2023-12-20T07:28:50;5;5;
72023;PMS5003;59889;50.700;5.440;2023-12-20T07:31:15;6;6;
72023;PMS5003;59889;50.700;5.440;2023-12-20T07:33:41;5;4;
72023;PMS5003;59889;50.700;5.440;2023-12-20T07:36:06;7;7;
72023;PMS5003;59889;50.700;5.440;2023-12-20T07:38:31;9;6;
72023;PMS5003;59889;50.700;5.440;2023-12-20T07:40:56;4;4;
72023;PMS5003;59889;50.700;5.440;2023-12-20T07:43:21;4;4;
72023;PMS5003;59889;50.700;5.440;2023-12-20T07:45:47;6;5;
72023;PMS5003;59889;50.700;5.440;2023-12-20T07:48:12;7;4;
72023;PMS5003;59889;50.700;5.440;2023-12-20T07:50:37;3;3;
72023;PMS5003;59889;50.700;5.440;2023-12-20T07:53:02;7;6;
72023;PMS5003;59889;50.700;5.440;2023-12-20T07:55:27;4;4;
72023;PMS5003;59889;50.700;5.440;2023-12-20T07:57:52;4;4;
72023;PMS5003;59889;50.700;5.440;2023-12-20T08:00:18;5;3;
72023;PMS5003;59889;50.700;5.440;2023-12-20T08:02:42;3;3;
72023;PMS5003;59889;50.700;5.440;2023-12-20T08:05:09;4;3;
72023;PMS5003;59889;50.700;5.440;2023-12-20T08:07:33;5;3;
72023;PMS5003;59889;50.700;5.440;2023-12-20T08:09:58;5;4;
72023;PMS5003;59889;50.700;5.440;2023-12-20T08:12:23;4;3;
72023;PMS5003;59889;50.700;5.440;2023-12-20T08:14:48;6;4;
72023;PMS5003;59889;50.700;5.440;2023-12-20T08:17:13;3;3;
72023;PMS5003;59889;50.700;5.440;2023-12-20T08:19:38;6;3;
72023;PMS5003;59889;50.700;5.440;2023-12-20T08:22:03;2;2;
72023;PMS5003;59889;50.700;5.440;2023-12-20T08:24:29;7;5;
72023;PMS5003;59889;50.700;5.440;2023-12-20T08:26:54;6;5;
72023;PMS5003;59889;50.700;5.440;2023-12-20T08:29:19;13;11;
72023;PMS5003;59889;50.700;5.440;2023-12-20T08:31:45;8;8;
72023;PMS5003;59889;50.700;5.440;2023-12-20T08:34:10;16;12;
72023;PMS5003;59889;50.700;5.440;2023-12-20T08:36:35;17;16;
72023;PMS5003;59889;50.700;5.440;2023-12-20T08:39:01;18;17;
72023;PMS5003;59889;50.700;5.440;2023-12-20T08:41:26;26;22;
72023;PMS5003;59889;50.700;5.440;2023-12-20T08:43:52;24;19;
72023;PMS5003;59889;50.700;5.440;2023-12-20T08:46:17;27;24;
72023;PMS5003;59889;50.700;5.440;2023-12-20T08:48:43;24;22;
72023;PMS5003;59889;50.700;5.440;2023-12-20T08:51:09;29;22;
72023;PMS5003;59889;50.700;5.440;2023-12-20T08:53:34;23;21;
72023;PMS5003;59889;50.700;5.440;2023-12-20T08:56:00;25;23;
72023;PMS5003;59889;50.700;5.440;2023-12-20T08:58:25;27;24;
72023;PMS5003;59889;50.700;5.440;2023-12-20T09:00:50;23;23;
72023;PMS5003;59889;50.700;5.440;2023-12-20T09:03:16;30;21;
72023;PMS5003;59889;50.700;5.440;2023-12-20T09:05:42;19;17;
72023;PMS5003;59889;50.700;5.440;2023-12-20T09:08:07;21;18;
72023;PMS5003;59889;50.700;5.440;2023-12-20T09:10:32;21;19;
72023;PMS5003;59889;50.700;5.440;2023-12-20T09:12:57;18;18;
72023;PMS5003;59889;50.700;5.440;2023-12-20T09:15:23;17;15;
72023;PMS5003;59889;50.700;5.440;2023-12-20T09:17:49;21;18;
72023;PMS5003;59889;50.700;5.440;2023-12-20T09:20:14;16;15;
72023;PMS5003;59889;50.700;5.440;2023-12-20T09:22:39;17;16;
72023;PMS5003;59889;50.700;5.440;2023-12-20T09:25:05;18;15;
72023;PMS5003;59889;50.700;5.440;2023-12-20T09:27:30;19;15;
72023;PMS5003;59889;50.700;5.440;2023-12-20T09:29:56;14;12;
72023;PMS5003;59889;50.700;5.440;2023-12-20T09:32:22;14;12;
72023;PMS5003;59889;50.700;5.440;2023-12-20T09:34:47;16;13;
72023;PMS5003;59889;50.700;5.440;2023-12-20T09:37:13;11;11;
72023;PMS5003;59889;50.700;5.440;2023-12-20T09:39:39;10;10;
72023;PMS5003;59889;50.700;5.440;2023-12-20T09:42:04;12;11;
72023;PMS5003;59889;50.700;5.440;2023-12-20T09:44:29;11;11;
72023;PMS5003;59889;50.700;5.440;2023-12-20T09:46:55;13;10;
72023;PMS5003;59889;50.700;5.440;2023-12-20T09:49:20;10;10;
72023;PMS5003;59889;50.700;5.440;2023-12-20T09:51:45;13;10;
72023;PMS5003;59889;50.700;5.440;2023-12-20T09:54:11;13;10;
72023;PMS5003;59889;50.700;5.440;2023-12-20T09:56:37;14;11;
72023;PMS5003;59889;50.700;5.440;2023-12-20T09:59:01;11;9;
72023;PMS5003;59889;50.700;5.440;2023-12-20T10:01:27;12;9;
72023;PMS5003;59889;50.700;5.440;2023-12-20T10:03:53;15;12;
72023;PMS5003;59889;50.700;5.440;2023-12-20T10:06:18;14;12;
72023;PMS5003;59889;50.700;5.440;2023-12-20T10:08:43;13;12;
72023;PMS5003;59889;50.700;5.440;2023-12-20T10:11:08;12;10;
72023;PMS5003;59889;50.700;5.440;2023-12-20T10:13:33;9;8;
72023;PMS5003;59889;50.700;5.440;2023-12-20T10:15:59;8;7;
72023;PMS5003;59889;50.700;5.440;2023-12-20T10:18:23;8;7;
72023;PMS5003;59889;50.700;5.440;2023-12-20T10:20:49;10;8;
72023;PMS5003;59889;50.700;5.440;2023-12-20T10:23:14;7;7;
72023;PMS5003;59889;50.700;5.440;2023-12-20T10:25:39;7;6;
72023;PMS5003;59889;50.700;5.440;2023-12-20T10:28:08;8;7;
72023;PMS5003;59889;50.700;5.440;2023-12-20T10:30:30;8;8;
72023;PMS5003;59889;50.700;5.440;2023-12-20T10:32:55;10;6;
72023;PMS5003;59889;50.700;5.440;2023-12-20T10:35:20;7;6;
72023;PMS5003;59889;50.700;5.440;2023-12-20T10:37:45;6;6;
72023;PMS5003;59889;50.700;5.440;2023-12-20T10:40:11;8;7;
72023;PMS5003;59889;50.700;5.440;2023-12-20T10:42:36;7;7;
72023;PMS5003;59889;50.700;5.440;2023-12-20T10:45:01;6;6;
72023;PMS5003;59889;50.700;5.440;2023-12-20T10:47:27;10;9;
72023;PMS5003;59889;50.700;5.440;2023-12-20T10:49:51;9;7;
72023;PMS5003;59889;50.700;5.440;2023-12-20T10:52:17;9;8;
72023;PMS5003;59889;50.700;5.440;2023-12-20T10:54:42;6;6;
72023;PMS5003;59889;50.700;5.440;2023-12-20T10:57:07;6;6;
72023;PMS5003;59889;50.700;5.440;2023-12-20T10:59:33;7;7;
72023;PMS5003;59889;50.700;5.440;2023-12-20T11:01:57;5;5;
72023;PMS5003;59889;50.700;5.440;2023-12-20T11:04:24;7;5;
72023;PMS5003;59889;50.700;5.440;2023-12-20T11:06:49;8;7;
72023;PMS5003;59889;50.700;5.440;2023-12-20T11:09:14;9;8;
72023;PMS5003;59889;50.700;5.440;2023-12-20T11:11:42;7;7;
72023;PMS5003;59889;50.700;5.440;2023-12-20T11:14:03;8;5;
72023;PMS5003;59889;50.700;5.440;2023-12-20T11:16:31;10;7;
72023;PMS5003;59889;50.700;5.440;2023-12-20T11:18:54;7;6;
72023;PMS5003;59889;50.700;5.440;2023-12-20T11:21:20;5;5;
72023;PMS5003;59889;50.700;5.440;2023-12-20T11:23:46;7;7;
72023;PMS5003;59889;50.700;5.440;2023-12-20T11:26:10;5;5;
72023;PMS5003;59889;50.700;5.440;2023-12-20T11:28:36;4;4;
72023;PMS5003;59889;50.700;5.440;2023-12-20T11:31:02;7;6;
72023;PMS5003;59889;50.700;5.440;2023-12-20T11:33:26;6;6;
72023;PMS5003;59889;50.700;5.440;2023-12-20T11:35:51;6;5;
72023;PMS5003;59889;50.700;5.440;2023-12-20T11:38:17;6;5;
72023;PMS5003;59889;50.700;5.440;2023-12-20T11:40:41;7;6;
72023;PMS5003;59889;50.700;5.440;2023-12-20T11:43:07;4;4;
72023;PMS5003;59889;50.700;5.440;2023-12-20T11:45:32;6;6;
72023;PMS5003;59889;50.700;5.440;2023-12-20T11:47:57;5;5;
72023;PMS5003;59889;50.700;5.440;2023-12-20T11:50:22;6;4;
72023;PMS5003;59889;50.700;5.440;2023-12-20T11:52:47;5;5;
72023;PMS5003;59889;50.700;5.440;2023-12-20T11:55:12;5;4;
72023;PMS5003;59889;50.700;5.440;2023-12-20T11:57:37;6;4;
72023;PMS5003;59889;50.700;5.440;2023-12-20T12:00:03;4;3;
72023;PMS5003;59889;50.700;5.440;2023-12-20T12:02:28;4;4;
72023;PMS5003;59889;50.700;5.440;2023-12-20T12:04:53;4;3;
72023;PMS5003;59889;50.700;5.440;2023-12-20T12:07:18;5;5;
72023;PMS5003;59889;50.700;5.440;2023-12-20T12:09:43;6;5;
72023;PMS5003;59889;50.700;5.440;2023-12-20T12:12:08;5;5;
72023;PMS5003;59889;50.700;5.440;2023-12-20T12:14:33;5;4;
72023;PMS5003;59889;50.700;5.440;2023-12-20T12:16:58;6;6;
72023;PMS5003;59889;50.700;5.440;2023-12-20T12:19:24;6;4;
72023;PMS5003;59889;50.700;5.440;2023-12-20T12:21:49;4;3;
72023;PMS5003;59889;50.700;5.440;2023-12-20T12:24:14;6;4;
72023;PMS5003;59889;50.700;5.440;2023-12-20T12:26:39;5;4;
72023;PMS5003;59889;50.700;5.440;2023-12-20T12:29:07;3;3;
72023;PMS5003;59889;50.700;5.440;2023-12-20T12:31:30;5;5;
72023;PMS5003;59889;50.700;5.440;2023-12-20T12:33:54;4;3;
72023;PMS5003;59889;50.700;5.440;2023-12-20T12:36:20;6;6;
72023;PMS5003;59889;50.700;5.440;2023-12-20T12:38:45;5;4;
72023;PMS5003;59889;50.700;5.440;2023-12-20T12:41:12;2;2;
72023;PMS5003;59889;50.700;5.440;2023-12-20T12:43:36;5;4;
72023;PMS5003;59889;50.700;5.440;2023-12-20T12:46:01;3;3;
72023;PMS5003;59889;50.700;5.440;2023-12-20T12:48:26;5;5;
72023;PMS5003;59889;50.700;5.440;2023-12-20T12:50:51;3;3;
72023;PMS5003;59889;50.700;5.440;2023-12-20T12:53:16;5;3;
72023;PMS5003;59889;50.700;5.440;2023-12-20T12:55:41;3;3;
72023;PMS5003;59889;50.700;5.440;2023-12-20T12:58:06;6;5;
72023;PMS5003;59889;50.700;5.440;2023-12-20T13:00:31;2;2;
72023;PMS5003;59889;50.700;5.440;2023-12-20T13:02:56;5;3;
72023;PMS5003;59889;50.700;5.440;2023-12-20T13:05:22;6;4;
72023;PMS5003;59889;50.700;5.440;2023-12-20T13:07:47;4;4;
72023;PMS5003;59889;50.700;5.440;2023-12-20T13:10:12;5;4;
72023;PMS5003;59889;50.700;5.440;2023-12-20T13:12:37;5;4;
72023;PMS5003;59889;50.700;5.440;2023-12-20T13:15:02;5;5;
72023;PMS5003;59889;50.700;5.440;2023-12-20T13:17:27;4;4;
72023;PMS5003;59889;50.700;5.440;2023-12-20T13:19:52;5;3;
72023;PMS5003;59889;50.700;5.440;2023-12-20T13:22:17;4;3;
72023;PMS5003;59889;50.700;5.440;2023-12-20T13:24:42;4;4;
72023;PMS5003;59889;50.700;5.440;2023-12-20T13:27:08;6;4;
72023;PMS5003;59889;50.700;5.440;2023-12-20T13:29:33;6;5;
72023;PMS5003;59889;50.700;5.440;2023-12-20T13:31:59;4;4;
72023;PMS5003;59889;50.700;5.440;2023-12-20T13:34:23;4;4;
72023;PMS5003;59889;50.700;5.440;2023-12-20T13:36:48;4;4;
72023;PMS5003;59889;50.700;5.440;2023-12-20T13:39:13;4;4;
72023;PMS5003;59889;50.700;5.440;2023-12-20T13:41:38;4;3;
72023;PMS5003;59889;50.700;5.440;2023-12-20T13:44:03;5;4;
72023;PMS5003;59889;50.700;5.440;2023-12-20T13:46:28;4;4;
72023;PMS5003;59889;50.700;5.440;2023-12-20T13:48:54;4;3;
72023;PMS5003;59889;50.700;5.440;2023-12-20T13:51:19;4;3;
72023;PMS5003;59889;50.700;5.440;2023-12-20T13:53:44;4;4;
72023;PMS5003;59889;50.700;5.440;2023-12-20T13:56:09;4;4;
72023;PMS5003;59889;50.700;5.440;2023-12-20T13:58:35;4;3;
72023;PMS5003;59889;50.700;5.440;2023-12-20T14:00:59;4;4;
72023;PMS5003;59889;50.700;5.440;2023-12-20T14:03:25;3;3;
72023;PMS5003;59889;50.700;5.440;2023-12-20T14:05:50;4;4;
72023;PMS5003;59889;50.700;5.440;2023-12-20T14:08:15;3;3;
72023;PMS5003;59889;50.700;5.440;2023-12-20T14:10:40;2;2;
72023;PMS5003;59889;50.700;5.440;2023-12-20T14:13:05;6;5;
72023;PMS5003;59889;50.700;5.440;2023-12-20T14:15:30;5;4;
72023;PMS5003;59889;50.700;5.440;2023-12-20T14:17:56;3;3;
72023;PMS5003;59889;50.700;5.440;2023-12-20T14:20:21;4;3;
72023;PMS5003;59889;50.700;5.440;2023-12-20T14:22:46;5;4;
72023;PMS5003;59889;50.700;5.440;2023-12-20T14:25:12;6;4;
72023;PMS5003;59889;50.700;5.440;2023-12-20T14:27:37;3;3;
72023;PMS5003;59889;50.700;5.440;2023-12-20T14:30:02;4;4;
72023;PMS5003;59889;50.700;5.440;2023-12-20T14:32:27;3;3;
72023;PMS5003;59889;50.700;5.440;2023-12-20T14:34:52;3;3;
72023;PMS5003;59889;50.700;5.440;2023-12-20T14:37:17;3;3;
72023;PMS5003;59889;50.700;5.440;2023-12-20T14:39:42;5;4;
72023;PMS5003;59889;50.700;5.440;2023-12-20T14:42:07;3;3;
72023;PMS5003;59889;50.700;5.440;2023-12-20T14:44:33;6;6;
72023;PMS5003;59889;50.700;5.440;2023-12-20T14:46:58;5;5;
72023;PMS5003;59889;50.700;5.440;2023-12-20T14:49:23;5;3;
72023;PMS5003;59889;50.700;5.440;2023-12-20T14:51:48;3;3;
72023;PMS5003;59889;50.700;5.440;2023-12-20T14:54:13;3;3;
72023;PMS5003;59889;50.700;5.440;2023-12-20T14:56:38;4;4;
72023;PMS5003;59889;50.700;5.440;2023-12-20T14:59:04;4;4;
72023;PMS5003;59889;50.700;5.440;2023-12-20T15:01:29;4;3;
72023;PMS5003;59889;50.700;5.440;2023-12-20T15:03:54;6;5;
72023;PMS5003;59889;50.700;5.440;2023-12-20T15:06:19;8;4;
72023;PMS5003;59889;50.700;5.440;2023-12-20T15:08:44;5;4;
72023;PMS5003;59889;50.700;5.440;2023-12-20T15:11:11;5;4;
72023;PMS5003;59889;50.700;5.440;2023-12-20T15:13:34;3;3;
72023;PMS5003;59889;50.700;5.440;2023-12-20T15:15:59;3;3;
72023;PMS5003;59889;50.700;5.440;2023-12-20T15:18:24;5;4;
72023;PMS5003;59889;50.700;5.440;2023-12-20T15:20:50;7;5;
72023;PMS5003;59889;50.700;5.440;2023-12-20T15:23:15;4;3;
72023;PMS5003;59889;50.700;5.440;2023-12-20T15:25:40;3;3;
72023;PMS5003;59889;50.700;5.440;2023-12-20T15:28:05;3;3;
72023;PMS5003;59889;50.700;5.440;2023-12-20T15:30:30;4;4;
72023;PMS5003;59889;50.700;5.440;2023-12-20T15:32:55;3;2;
72023;PMS5003;59889;50.700;5.440;2023-12-20T15:35:20;3;3;
72023;PMS5003;59889;50.700;5.440;2023-12-20T15:37:45;5;4;
72023;PMS5003;59889;50.700;5.440;2023-12-20T15:40:11;2;2;
72023;PMS5003;59889;50.700;5.440;2023-12-20T15:42:36;4;2;
72023;PMS5003;59889;50.700;5.440;2023-12-20T15:45:01;4;4;
72023;PMS5003;59889;50.700;5.440;2023-12-20T15:47:26;3;3;
72023;PMS5003;59889;50.700;5.440;2023-12-20T15:49:51;3;2;
72023;PMS5003;59889;50.700;5.440;2023-12-20T15:52:16;4;4;
72023;PMS5003;59889;50.700;5.440;2023-12-20T15:54:41;5;3;
72023;PMS5003;59889;50.700;5.440;2023-12-20T15:57:06;2;2;
72023;PMS5003;59889;50.700;5.440;2023-12-20T15:59:32;4;3;
72023;PMS5003;59889;50.700;5.440;2023-12-20T16:01:57;4;4;
72023;PMS5003;59889;50.700;5.440;2023-12-20T16:04:22;3;3;
72023;PMS5003;59889;50.700;5.440;2023-12-20T16:06:47;4;3;
72023;PMS5003;59889;50.700;5.440;2023-12-20T16:09:12;4;3;
72023;PMS5003;59889;50.700;5.440;2023-12-20T16:11:38;4;3;
72023;PMS5003;59889;50.700;5.440;2023-12-20T16:14:03;3;3;
72023;PMS5003;59889;50.700;5.440;2023-12-20T16:16:28;3;3;
72023;PMS5003;59889;50.700;5.440;2023-12-20T16:18:53;5;5;
72023;PMS5003;59889;50.700;5.440;2023-12-20T16:21:18;4;4;
72023;PMS5003;59889;50.700;5.440;2023-12-20T16:23:43;5;4;
72023;PMS5003;59889;50.700;5.440;2023-12-20T16:26:08;4;4;
72023;PMS5003;59889;50.700;5.440;2023-12-20T16:28:33;4;3;
72023;PMS5003;59889;50.700;5.440;2023-12-20T16:30:58;3;2;
72023;PMS5003;59889;50.700;5.440;2023-12-20T16:33:23;2;2;